sensor_id;sensor_type;location;lat;lon;timestamp;P1;durP1;ratioP1;P2;durP2;ratioP2
3733;SDS011;1882;52.256;8.874;2023-12-22T00:01:48;20.20;;;3.63;;
3733;SDS011;1882;52.256;8.874;2023-12-22T00:04:17;31.30;;;4.20;;
3733;SDS011;1882;52.256;8.874;2023-12-22T00:09:39;21.33;;;4.10;;
3733;SDS011;1882;52.256;8.874;2023-12-22T00:12:06;12.90;;;3.33;;
3733;SDS011;1882;52.256;8.874;2023-12-22T00:14:33;24.43;;;5.60;;
3733;SDS011;1882;52.256;8.874;2023-12-22T00:16:59;26.93;;;4.37;;
3733;SDS011;1882;52.256;8.874;2023-12-22T00:19:29;16.80;;;3.60;;
3733;SDS011;1882;52.256;8.874;2023-12-22T00:21:56;34.23;;;4.53;;
3733;SDS011;1882;52.256;8.874;2023-12-22T00:24:24;25.27;;;4.40;;
3733;SDS011;1882;52.256;8.874;2023-12-22T00:26:51;26.20;;;5.00;;
3733;SDS011;1882;52.256;8.874;2023-12-22T00:29:20;17.60;;;3.60;;
3733;SDS011;1882;52.256;8.874;2023-12-22T00:31:49;20.83;;;3.40;;
3733;SDS011;1882;52.256;8.874;2023-12-22T00:34:17;20.67;;;3.67;;
3733;SDS011;1882;52.256;8.874;2023-12-22T00:36:46;26.20;;;3.57;;
3733;SDS011;1882;52.256;8.874;2023-12-22T00:39:16;15.17;;;3.23;;
3733;SDS011;1882;52.256;8.874;2023-12-22T00:41:49;24.53;;;3.60;;
3733;SDS011;1882;52.256;8.874;2023-12-22T00:44:16;29.50;;;5.10;;
3733;SDS011;1882;52.256;8.874;2023-12-22T00:46:43;26.13;;;4.60;;
3733;SDS011;1882;52.256;8.874;2023-12-22T00:49:18;18.97;;;3.93;;
3733;SDS011;1882;52.256;8.874;2023-12-22T00:51:45;23.63;;;4.40;;
3733;SDS011;1882;52.256;8.874;2023-12-22T00:54:14;25.20;;;5.17;;
3733;SDS011;1882;52.256;8.874;2023-12-22T00:56:46;18.13;;;3.50;;
3733;SDS011;1882;52.256;8.874;2023-12-22T00:59:13;20.70;;;4.60;;
3733;SDS011;1882;52.256;8.874;2023-12-22T01:01:40;15.80;;;2.87;;
3733;SDS011;1882;52.256;8.874;2023-12-22T01:04:14;16.03;;;3.17;;
3733;SDS011;1882;52.256;8.874;2023-12-22T01:07:01;18.60;;;2.77;;
3733;SDS011;1882;52.256;8.874;2023-12-22T01:09:28;16.33;;;2.27;;
3733;SDS011;1882;52.256;8.874;2023-12-22T01:11:55;10.27;;;2.20;;
3733;SDS011;1882;52.256;8.874;2023-12-22T01:14:21;13.53;;;3.23;;
3733;SDS011;1882;52.256;8.874;2023-12-22T01:16:48;9.17;;;2.30;;
3733;SDS011;1882;52.256;8.874;2023-12-22T01:19:15;12.40;;;2.90;;
3733;SDS011;1882;52.256;8.874;2023-12-22T01:21:42;8.73;;;2.60;;
3733;SDS011;1882;52.256;8.874;2023-12-22T01:24:11;11.23;;;2.67;;
3733;SDS011;1882;52.256;8.874;2023-12-22T01:26:45;13.50;;;2.67;;
3733;SDS011;1882;52.256;8.874;2023-12-22T01:29:12;13.60;;;2.87;;
3733;SDS011;1882;52.256;8.874;2023-12-22T01:31:41;12.10;;;2.63;;
3733;SDS011;1882;52.256;8.874;2023-12-22T01:34:17;11.53;;;2.53;;
3733;SDS011;1882;52.256;8.874;2023-12-22T01:36:45;12.73;;;2.67;;
3733;SDS011;1882;52.256;8.874;2023-12-22T01:39:16;9.93;;;2.80;;
3733;SDS011;1882;52.256;8.874;2023-12-22T01:41:50;14.67;;;2.10;;
3733;SDS011;1882;52.256;8.874;2023-12-22T01:44:17;13.50;;;2.93;;
3733;SDS011;1882;52.256;8.874;2023-12-22T01:46:44;14.20;;;3.13;;
3733;SDS011;1882;52.256;8.874;2023-12-22T01:49:16;11.50;;;2.40;;
3733;SDS011;1882;52.256;8.874;2023-12-22T01:51:46;15.20;;;3.47;;
3733;SDS011;1882;52.256;8.874;2023-12-22T01:54:17;13.60;;;2.57;;
3733;SDS011;1882;52.256;8.874;2023-12-22T01:56:52;15.50;;;2.97;;
3733;SDS011;1882;52.256;8.874;2023-12-22T01:59:20;18.63;;;3.93;;
3733;SDS011;1882;52.256;8.874;2023-12-22T02:01:47;20.47;;;3.33;;
3733;SDS011;1882;52.256;8.874;2023-12-22T02:04:16;12.83;;;2.80;;
3733;SDS011;1882;52.256;8.874;2023-12-22T02:06:43;11.40;;;2.63;;
3733;SDS011;1882;52.256;8.874;2023-12-22T02:09:10;8.30;;;2.40;;
3733;SDS011;1882;52.256;8.874;2023-12-22T02:11:38;10.30;;;2.80;;
3733;SDS011;1882;52.256;8.874;2023-12-22T02:14:07;8.03;;;2.10;;
3733;SDS011;1882;52.256;8.874;2023-12-22T02:16:56;15.50;;;2.43;;
3733;SDS011;1882;52.256;8.874;2023-12-22T02:19:39;17.43;;;3.30;;
3733;SDS011;1882;52.256;8.874;2023-12-22T02:22:09;12.20;;;2.40;;
3733;SDS011;1882;52.256;8.874;2023-12-22T02:24:37;6.30;;;2.37;;
3733;SDS011;1882;52.256;8.874;2023-12-22T02:29:32;20.20;;;2.63;;
3733;SDS011;1882;52.256;8.874;2023-12-22T02:32:06;14.83;;;2.80;;
3733;SDS011;1882;52.256;8.874;2023-12-22T02:34:35;8.67;;;1.77;;
3733;SDS011;1882;52.256;8.874;2023-12-22T02:37:07;13.33;;;2.70;;
3733;SDS011;1882;52.256;8.874;2023-12-22T02:39:37;14.40;;;2.97;;
3733;SDS011;1882;52.256;8.874;2023-12-22T02:42:04;10.27;;;2.60;;
3733;SDS011;1882;52.256;8.874;2023-12-22T02:44:32;20.93;;;2.80;;
3733;SDS011;1882;52.256;8.874;2023-12-22T02:47:05;12.53;;;2.90;;
3733;SDS011;1882;52.256;8.874;2023-12-22T02:49:32;11.63;;;2.60;;
3733;SDS011;1882;52.256;8.874;2023-12-22T02:51:59;14.83;;;2.23;;
3733;SDS011;1882;52.256;8.874;2023-12-22T02:54:25;19.37;;;2.83;;
3733;SDS011;1882;52.256;8.874;2023-12-22T02:56:54;21.70;;;3.40;;
3733;SDS011;1882;52.256;8.874;2023-12-22T02:59:25;10.60;;;2.73;;
3733;SDS011;1882;52.256;8.874;2023-12-22T03:01:54;20.20;;;2.70;;
3733;SDS011;1882;52.256;8.874;2023-12-22T03:04:20;9.40;;;1.83;;
3733;SDS011;1882;52.256;8.874;2023-12-22T03:06:47;12.53;;;2.83;;
3733;SDS011;1882;52.256;8.874;2023-12-22T03:09:14;12.47;;;2.70;;
3733;SDS011;1882;52.256;8.874;2023-12-22T03:11:41;18.40;;;2.30;;
3733;SDS011;1882;52.256;8.874;2023-12-22T03:14:10;22.13;;;3.23;;
3733;SDS011;1882;52.256;8.874;2023-12-22T03:16:49;16.43;;;2.20;;
3733;SDS011;1882;52.256;8.874;2023-12-22T03:19:16;12.80;;;3.40;;
3733;SDS011;1882;52.256;8.874;2023-12-22T03:21:45;7.90;;;2.00;;
3733;SDS011;1882;52.256;8.874;2023-12-22T03:24:15;13.13;;;2.93;;
3733;SDS011;1882;52.256;8.874;2023-12-22T03:26:41;19.27;;;3.37;;
3733;SDS011;1882;52.256;8.874;2023-12-22T03:29:17;12.73;;;2.97;;
3733;SDS011;1882;52.256;8.874;2023-12-22T03:31:48;10.73;;;3.50;;
3733;SDS011;1882;52.256;8.874;2023-12-22T03:34:17;15.77;;;2.63;;
3733;SDS011;1882;52.256;8.874;2023-12-22T03:36:44;18.07;;;2.97;;
3733;SDS011;1882;52.256;8.874;2023-12-22T03:39:18;15.43;;;2.80;;
3733;SDS011;1882;52.256;8.874;2023-12-22T03:41:44;22.33;;;2.87;;
3733;SDS011;1882;52.256;8.874;2023-12-22T03:44:11;16.90;;;2.93;;
3733;SDS011;1882;52.256;8.874;2023-12-22T03:46:54;14.70;;;2.47;;
3733;SDS011;1882;52.256;8.874;2023-12-22T03:49:22;19.63;;;3.03;;
3733;SDS011;1882;52.256;8.874;2023-12-22T03:51:49;19.90;;;2.53;;
3733;SDS011;1882;52.256;8.874;2023-12-22T03:54:15;17.40;;;2.87;;
3733;SDS011;1882;52.256;8.874;2023-12-22T03:56:44;10.07;;;2.70;;
3733;SDS011;1882;52.256;8.874;2023-12-22T03:59:15;14.33;;;2.50;;
3733;SDS011;1882;52.256;8.874;2023-12-22T04:01:51;15.67;;;2.83;;
3733;SDS011;1882;52.256;8.874;2023-12-22T04:04:19;16.70;;;2.50;;
3733;SDS011;1882;52.256;8.874;2023-12-22T04:06:49;18.60;;;2.70;;
3733;SDS011;1882;52.256;8.874;2023-12-22T04:09:16;12.13;;;3.17;;
3733;SDS011;1882;52.256;8.874;2023-12-22T04:11:53;12.20;;;2.63;;
3733;SDS011;1882;52.256;8.874;2023-12-22T04:14:19;15.60;;;2.80;;
3733;SDS011;1882;52.256;8.874;2023-12-22T04:16:46;20.03;;;3.13;;
3733;SDS011;1882;52.256;8.874;2023-12-22T04:19:13;19.63;;;3.27;;
3733;SDS011;1882;52.256;8.874;2023-12-22T04:21:42;17.67;;;3.10;;
3733;SDS011;1882;52.256;8.874;2023-12-22T04:24:09;18.97;;;3.83;;
3733;SDS011;1882;52.256;8.874;2023-12-22T04:26:36;11.93;;;2.77;;
3733;SDS011;1882;52.256;8.874;2023-12-22T04:29:03;5.80;;;2.10;;
3733;SDS011;1882;52.256;8.874;2023-12-22T04:31:30;9.60;;;1.93;;
3733;SDS011;1882;52.256;8.874;2023-12-22T04:34:06;25.83;;;3.10;;
3733;SDS011;1882;52.256;8.874;2023-12-22T04:36:33;11.10;;;2.50;;
3733;SDS011;1882;52.256;8.874;2023-12-22T04:39:00;9.73;;;2.40;;
3733;SDS011;1882;52.256;8.874;2023-12-22T04:41:35;11.87;;;3.00;;
3733;SDS011;1882;52.256;8.874;2023-12-22T04:44:02;12.00;;;2.17;;
3733;SDS011;1882;52.256;8.874;2023-12-22T04:46:29;12.47;;;3.00;;
3733;SDS011;1882;52.256;8.874;2023-12-22T04:48:56;20.47;;;2.87;;
3733;SDS011;1882;52.256;8.874;2023-12-22T04:51:29;17.73;;;2.80;;
3733;SDS011;1882;52.256;8.874;2023-12-22T04:53:55;15.97;;;2.43;;
3733;SDS011;1882;52.256;8.874;2023-12-22T04:56:22;14.40;;;2.93;;
3733;SDS011;1882;52.256;8.874;2023-12-22T04:58:49;14.73;;;3.00;;
3733;SDS011;1882;52.256;8.874;2023-12-22T05:01:16;27.90;;;3.43;;
3733;SDS011;1882;52.256;8.874;2023-12-22T05:03:45;13.57;;;2.33;;
3733;SDS011;1882;52.256;8.874;2023-12-22T05:06:12;16.17;;;2.33;;
3733;SDS011;1882;52.256;8.874;2023-12-22T05:08:39;13.67;;;2.30;;
3733;SDS011;1882;52.256;8.874;2023-12-22T05:11:05;14.07;;;2.40;;
3733;SDS011;1882;52.256;8.874;2023-12-22T05:13:32;13.07;;;2.40;;
3733;SDS011;1882;52.256;8.874;2023-12-22T05:16:07;15.70;;;2.70;;
3733;SDS011;1882;52.256;8.874;2023-12-22T05:18:33;7.50;;;1.87;;
3733;SDS011;1882;52.256;8.874;2023-12-22T05:21:00;7.43;;;2.00;;
3733;SDS011;1882;52.256;8.874;2023-12-22T05:23:27;13.13;;;2.00;;
3733;SDS011;1882;52.256;8.874;2023-12-22T05:25:56;8.77;;;2.10;;
3733;SDS011;1882;52.256;8.874;2023-12-22T05:28:25;10.00;;;1.90;;
3733;SDS011;1882;52.256;8.874;2023-12-22T05:30:53;6.20;;;1.70;;
3733;SDS011;1882;52.256;8.874;2023-12-22T05:33:25;8.40;;;1.60;;
3733;SDS011;1882;52.256;8.874;2023-12-22T05:35:56;13.83;;;2.37;;
3733;SDS011;1882;52.256;8.874;2023-12-22T05:38:26;7.53;;;2.33;;
3733;SDS011;1882;52.256;8.874;2023-12-22T05:40:57;7.73;;;2.10;;
3733;SDS011;1882;52.256;8.874;2023-12-22T05:43:27;16.97;;;2.63;;
3733;SDS011;1882;52.256;8.874;2023-12-22T05:45:57;16.50;;;2.10;;
3733;SDS011;1882;52.256;8.874;2023-12-22T05:48:27;5.93;;;1.90;;
3733;SDS011;1882;52.256;8.874;2023-12-22T05:50:58;11.20;;;2.03;;
3733;SDS011;1882;52.256;8.874;2023-12-22T05:53:25;11.53;;;2.40;;
3733;SDS011;1882;52.256;8.874;2023-12-22T05:55:51;12.23;;;2.20;;
3733;SDS011;1882;52.256;8.874;2023-12-22T05:58:29;6.93;;;1.67;;
3733;SDS011;1882;52.256;8.874;2023-12-22T06:00:56;10.00;;;1.97;;
3733;SDS011;1882;52.256;8.874;2023-12-22T06:03:32;8.73;;;1.40;;
3733;SDS011;1882;52.256;8.874;2023-12-22T06:06:04;7.77;;;2.00;;
3733;SDS011;1882;52.256;8.874;2023-12-22T06:08:31;9.47;;;2.00;;
3733;SDS011;1882;52.256;8.874;2023-12-22T06:11:05;8.00;;;2.03;;
3733;SDS011;1882;52.256;8.874;2023-12-22T06:13:32;16.83;;;1.83;;
3733;SDS011;1882;52.256;8.874;2023-12-22T06:15:59;5.03;;;1.83;;
3733;SDS011;1882;52.256;8.874;2023-12-22T06:18:25;10.40;;;2.20;;
3733;SDS011;1882;52.256;8.874;2023-12-22T06:20:52;12.77;;;2.47;;
3733;SDS011;1882;52.256;8.874;2023-12-22T06:23:21;11.90;;;2.03;;
3733;SDS011;1882;52.256;8.874;2023-12-22T06:25:54;6.60;;;1.53;;
3733;SDS011;1882;52.256;8.874;2023-12-22T06:28:21;10.03;;;1.87;;
3733;SDS011;1882;52.256;8.874;2023-12-22T06:30:56;12.57;;;3.03;;
3733;SDS011;1882;52.256;8.874;2023-12-22T06:33:25;14.00;;;2.43;;
3733;SDS011;1882;52.256;8.874;2023-12-22T06:35:53;7.83;;;1.73;;
3733;SDS011;1882;52.256;8.874;2023-12-22T06:38:23;9.70;;;2.13;;
3733;SDS011;1882;52.256;8.874;2023-12-22T06:40:50;19.53;;;2.50;;
3733;SDS011;1882;52.256;8.874;2023-12-22T06:43:29;5.70;;;1.60;;
3733;SDS011;1882;52.256;8.874;2023-12-22T06:45:56;12.73;;;2.30;;
3733;SDS011;1882;52.256;8.874;2023-12-22T06:48:30;8.07;;;2.00;;
3733;SDS011;1882;52.256;8.874;2023-12-22T06:51:06;16.53;;;3.27;;
3733;SDS011;1882;52.256;8.874;2023-12-22T06:53:33;12.47;;;2.40;;
3733;SDS011;1882;52.256;8.874;2023-12-22T06:56:00;12.27;;;2.80;;
3733;SDS011;1882;52.256;8.874;2023-12-22T06:58:27;9.27;;;2.33;;
3733;SDS011;1882;52.256;8.874;2023-12-22T07:00:57;11.17;;;2.80;;
3733;SDS011;1882;52.256;8.874;2023-12-22T07:03:24;9.97;;;2.30;;
3733;SDS011;1882;52.256;8.874;2023-12-22T07:05:54;11.53;;;2.07;;
3733;SDS011;1882;52.256;8.874;2023-12-22T07:08:23;13.57;;;3.73;;
3733;SDS011;1882;52.256;8.874;2023-12-22T07:10:59;11.33;;;2.50;;
3733;SDS011;1882;52.256;8.874;2023-12-22T07:13:26;9.70;;;2.30;;
3733;SDS011;1882;52.256;8.874;2023-12-22T07:16:00;12.83;;;2.97;;
3733;SDS011;1882;52.256;8.874;2023-12-22T07:18:28;11.50;;;2.50;;
3733;SDS011;1882;52.256;8.874;2023-12-22T07:20:59;14.47;;;3.17;;
3733;SDS011;1882;52.256;8.874;2023-12-22T07:23:29;13.57;;;2.73;;
3733;SDS011;1882;52.256;8.874;2023-12-22T07:25:56;13.83;;;2.17;;
3733;SDS011;1882;52.256;8.874;2023-12-22T07:28:25;12.17;;;2.27;;
3733;SDS011;1882;52.256;8.874;2023-12-22T07:31:00;15.93;;;2.67;;
3733;SDS011;1882;52.256;8.874;2023-12-22T07:33:36;12.43;;;2.40;;
3733;SDS011;1882;52.256;8.874;2023-12-22T07:36:53;12.30;;;2.77;;
3733;SDS011;1882;52.256;8.874;2023-12-22T07:39:43;19.13;;;3.30;;
3733;SDS011;1882;52.256;8.874;2023-12-22T07:42:25;4.70;;;2.20;;
3733;SDS011;1882;52.256;8.874;2023-12-22T07:45:09;16.87;;;2.80;;
3733;SDS011;1882;52.256;8.874;2023-12-22T07:47:45;18.60;;;3.00;;
3733;SDS011;1882;52.256;8.874;2023-12-22T07:50:40;11.30;;;2.87;;
3733;SDS011;1882;52.256;8.874;2023-12-22T07:53:44;9.60;;;2.67;;
3733;SDS011;1882;52.256;8.874;2023-12-22T08:02:42;9.30;;;2.70;;
3733;SDS011;1882;52.256;8.874;2023-12-22T08:05:14;15.37;;;2.87;;
3733;SDS011;1882;52.256;8.874;2023-12-22T08:07:43;14.87;;;2.73;;
3733;SDS011;1882;52.256;8.874;2023-12-22T08:14:02;7.17;;;2.00;;
3733;SDS011;1882;52.256;8.874;2023-12-22T08:16:50;8.97;;;3.03;;
3733;SDS011;1882;52.256;8.874;2023-12-22T08:19:17;10.77;;;2.17;;
3733;SDS011;1882;52.256;8.874;2023-12-22T08:21:48;11.77;;;2.40;;
3733;SDS011;1882;52.256;8.874;2023-12-22T08:24:19;17.23;;;2.90;;
3733;SDS011;1882;52.256;8.874;2023-12-22T08:27:05;18.60;;;2.40;;
3733;SDS011;1882;52.256;8.874;2023-12-22T08:29:33;19.77;;;3.17;;
3733;SDS011;1882;52.256;8.874;2023-12-22T08:32:01;15.97;;;2.67;;
3733;SDS011;1882;52.256;8.874;2023-12-22T08:34:34;7.93;;;1.90;;
3733;SDS011;1882;52.256;8.874;2023-12-22T08:37:01;10.20;;;2.37;;
3733;SDS011;1882;52.256;8.874;2023-12-22T08:39:27;13.33;;;2.50;;
3733;SDS011;1882;52.256;8.874;2023-12-22T08:41:54;14.33;;;3.13;;
3733;SDS011;1882;52.256;8.874;2023-12-22T08:44:21;17.40;;;3.50;;
3733;SDS011;1882;52.256;8.874;2023-12-22T08:46:50;10.27;;;2.50;;
3733;SDS011;1882;52.256;8.874;2023-12-22T08:49:17;15.00;;;2.97;;
3733;SDS011;1882;52.256;8.874;2023-12-22T08:51:44;16.93;;;3.57;;
3733;SDS011;1882;52.256;8.874;2023-12-22T08:54:21;7.63;;;2.13;;
3733;SDS011;1882;52.256;8.874;2023-12-22T08:56:51;14.50;;;2.50;;
3733;SDS011;1882;52.256;8.874;2023-12-22T08:59:20;12.50;;;2.87;;
3733;SDS011;1882;52.256;8.874;2023-12-22T09:01:55;14.10;;;2.20;;
3733;SDS011;1882;52.256;8.874;2023-12-22T09:04:22;16.30;;;2.47;;
3733;SDS011;1882;52.256;8.874;2023-12-22T09:06:49;14.00;;;2.77;;
3733;SDS011;1882;52.256;8.874;2023-12-22T09:09:17;11.60;;;2.63;;
3733;SDS011;1882;52.256;8.874;2023-12-22T09:11:54;15.50;;;2.60;;
3733;SDS011;1882;52.256;8.874;2023-12-22T09:14:21;10.00;;;2.43;;
3733;SDS011;1882;52.256;8.874;2023-12-22T09:16:56;11.33;;;2.90;;
3733;SDS011;1882;52.256;8.874;2023-12-22T09:19:25;8.70;;;2.60;;
3733;SDS011;1882;52.256;8.874;2023-12-22T09:21:53;12.83;;;2.77;;
3733;SDS011;1882;52.256;8.874;2023-12-22T09:24:19;11.00;;;2.33;;
3733;SDS011;1882;52.256;8.874;2023-12-22T09:26:56;15.97;;;3.27;;
3733;SDS011;1882;52.256;8.874;2023-12-22T09:29:55;9.60;;;2.40;;
3733;SDS011;1882;52.256;8.874;2023-12-22T09:32:25;15.60;;;2.47;;
3733;SDS011;1882;52.256;8.874;2023-12-22T09:34:54;19.30;;;2.70;;
3733;SDS011;1882;52.256;8.874;2023-12-22T09:37:26;14.20;;;2.93;;
3733;SDS011;1882;52.256;8.874;2023-12-22T09:39:55;14.93;;;3.23;;
3733;SDS011;1882;52.256;8.874;2023-12-22T09:42:22;13.33;;;3.23;;
3733;SDS011;1882;52.256;8.874;2023-12-22T09:44:57;8.73;;;2.93;;
3733;SDS011;1882;52.256;8.874;2023-12-22T09:47:25;14.97;;;2.70;;
3733;SDS011;1882;52.256;8.874;2023-12-22T09:50:12;16.10;;;2.70;;
3733;SDS011;1882;52.256;8.874;2023-12-22T09:52:40;22.07;;;3.90;;
3733;SDS011;1882;52.256;8.874;2023-12-22T09:55:17;15.17;;;2.43;;
3733;SDS011;1882;52.256;8.874;2023-12-22T09:57:48;14.67;;;3.00;;
3733;SDS011;1882;52.256;8.874;2023-12-22T10:00:25;18.83;;;2.47;;
3733;SDS011;1882;52.256;8.874;2023-12-22T10:02:54;14.03;;;3.10;;
3733;SDS011;1882;52.256;8.874;2023-12-22T10:05:30;14.30;;;2.80;;
3733;SDS011;1882;52.256;8.874;2023-12-22T10:07:57;12.10;;;3.23;;
3733;SDS011;1882;52.256;8.874;2023-12-22T10:10:28;14.40;;;2.60;;
3733;SDS011;1882;52.256;8.874;2023-12-22T10:13:01;16.33;;;2.90;;
3733;SDS011;1882;52.256;8.874;2023-12-22T10:15:30;14.00;;;4.07;;
3733;SDS011;1882;52.256;8.874;2023-12-22T10:17:57;10.67;;;3.00;;
3733;SDS011;1882;52.256;8.874;2023-12-22T10:20:30;10.53;;;3.10;;
3733;SDS011;1882;52.256;8.874;2023-12-22T10:22:57;10.33;;;2.57;;
3733;SDS011;1882;52.256;8.874;2023-12-22T10:25:29;19.43;;;2.80;;
3733;SDS011;1882;52.256;8.874;2023-12-22T10:27:59;15.53;;;2.80;;
3733;SDS011;1882;52.256;8.874;2023-12-22T10:30:26;7.20;;;2.27;;
3733;SDS011;1882;52.256;8.874;2023-12-22T10:32:54;14.03;;;3.40;;
3733;SDS011;1882;52.256;8.874;2023-12-22T10:35:21;13.40;;;3.27;;
3733;SDS011;1882;52.256;8.874;2023-12-22T10:37:49;16.60;;;3.70;;
3733;SDS011;1882;52.256;8.874;2023-12-22T10:40:20;12.53;;;3.50;;
3733;SDS011;1882;52.256;8.874;2023-12-22T10:42:48;14.93;;;3.03;;
3733;SDS011;1882;52.256;8.874;2023-12-22T10:45:15;6.63;;;2.17;;
3733;SDS011;1882;52.256;8.874;2023-12-22T10:47:46;11.27;;;2.83;;
3733;SDS011;1882;52.256;8.874;2023-12-22T10:50:19;9.10;;;1.70;;
3733;SDS011;1882;52.256;8.874;2023-12-22T10:52:49;11.93;;;1.90;;
3733;SDS011;1882;52.256;8.874;2023-12-22T10:55:17;7.60;;;2.40;;
3733;SDS011;1882;52.256;8.874;2023-12-22T10:57:47;8.53;;;2.00;;
3733;SDS011;1882;52.256;8.874;2023-12-22T11:00:17;8.23;;;1.80;;
3733;SDS011;1882;52.256;8.874;2023-12-22T11:02:49;6.30;;;2.17;;
3733;SDS011;1882;52.256;8.874;2023-12-22T11:05:22;7.57;;;2.00;;
3733;SDS011;1882;52.256;8.874;2023-12-22T11:07:50;7.03;;;1.80;;
3733;SDS011;1882;52.256;8.874;2023-12-22T11:10:21;5.70;;;1.80;;
3733;SDS011;1882;52.256;8.874;2023-12-22T11:12:53;7.70;;;1.97;;
3733;SDS011;1882;52.256;8.874;2023-12-22T11:15:22;6.27;;;1.33;;
3733;SDS011;1882;52.256;8.874;2023-12-22T11:17:51;4.73;;;1.40;;
3733;SDS011;1882;52.256;8.874;2023-12-22T11:20:21;3.80;;;1.67;;
3733;SDS011;1882;52.256;8.874;2023-12-22T11:22:49;5.13;;;1.50;;
3733;SDS011;1882;52.256;8.874;2023-12-22T11:25:17;5.43;;;1.70;;
3733;SDS011;1882;52.256;8.874;2023-12-22T11:27:52;5.53;;;1.37;;
3733;SDS011;1882;52.256;8.874;2023-12-22T11:30:39;3.60;;;1.13;;
3733;SDS011;1882;52.256;8.874;2023-12-22T11:33:06;2.43;;;1.30;;
3733;SDS011;1882;52.256;8.874;2023-12-22T11:35:35;3.67;;;1.43;;
3733;SDS011;1882;52.256;8.874;2023-12-22T11:38:03;3.07;;;1.60;;
3733;SDS011;1882;52.256;8.874;2023-12-22T11:40:31;10.20;;;1.93;;
3733;SDS011;1882;52.256;8.874;2023-12-22T11:42:57;11.57;;;1.70;;
3733;SDS011;1882;52.256;8.874;2023-12-22T11:45:25;5.73;;;1.60;;
3733;SDS011;1882;52.256;8.874;2023-12-22T11:47:52;4.57;;;2.07;;
3733;SDS011;1882;52.256;8.874;2023-12-22T11:50:28;10.40;;;1.73;;
3733;SDS011;1882;52.256;8.874;2023-12-22T11:53:19;2.90;;;1.43;;
3733;SDS011;1882;52.256;8.874;2023-12-22T11:58:45;6.43;;;1.60;;
3733;SDS011;1882;52.256;8.874;2023-12-22T12:01:18;8.33;;;1.70;;
3733;SDS011;1882;52.256;8.874;2023-12-22T12:03:55;4.07;;;1.57;;
3733;SDS011;1882;52.256;8.874;2023-12-22T12:08:56;3.10;;;1.40;;
3733;SDS011;1882;52.256;8.874;2023-12-22T12:11:24;4.20;;;1.40;;
3733;SDS011;1882;52.256;8.874;2023-12-22T12:14:21;3.93;;;1.60;;
3733;SDS011;1882;52.256;8.874;2023-12-22T12:16:49;10.77;;;1.80;;
3733;SDS011;1882;52.256;8.874;2023-12-22T12:19:16;6.77;;;1.60;;
3733;SDS011;1882;52.256;8.874;2023-12-22T12:21:49;4.73;;;1.60;;
3733;SDS011;1882;52.256;8.874;2023-12-22T12:24:16;6.67;;;1.87;;
3733;SDS011;1882;52.256;8.874;2023-12-22T12:26:48;3.80;;;1.67;;
3733;SDS011;1882;52.256;8.874;2023-12-22T12:29:20;6.27;;;1.70;;
3733;SDS011;1882;52.256;8.874;2023-12-22T12:31:49;15.83;;;2.07;;
3733;SDS011;1882;52.256;8.874;2023-12-22T12:34:33;7.53;;;2.17;;
3733;SDS011;1882;52.256;8.874;2023-12-22T12:37:00;5.40;;;1.60;;
3733;SDS011;1882;52.256;8.874;2023-12-22T12:39:33;3.40;;;1.70;;
3733;SDS011;1882;52.256;8.874;2023-12-22T12:42:01;6.77;;;3.50;;
3733;SDS011;1882;52.256;8.874;2023-12-22T12:44:29;5.93;;;2.20;;
3733;SDS011;1882;52.256;8.874;2023-12-22T12:47:12;14.10;;;8.40;;
3733;SDS011;1882;52.256;8.874;2023-12-22T12:49:40;10.47;;;3.70;;
3733;SDS011;1882;52.256;8.874;2023-12-22T12:52:15;15.23;;;3.07;;
3733;SDS011;1882;52.256;8.874;2023-12-22T12:54:42;4.43;;;2.50;;
3733;SDS011;1882;52.256;8.874;2023-12-22T12:57:13;13.40;;;5.50;;
3733;SDS011;1882;52.256;8.874;2023-12-22T12:59:44;5.20;;;2.80;;
3733;SDS011;1882;52.256;8.874;2023-12-22T13:02:12;5.13;;;1.83;;
3733;SDS011;1882;52.256;8.874;2023-12-22T13:04:39;12.33;;;2.90;;
3733;SDS011;1882;52.256;8.874;2023-12-22T13:07:06;9.23;;;3.37;;
3733;SDS011;1882;52.256;8.874;2023-12-22T13:09:33;5.17;;;2.80;;
3733;SDS011;1882;52.256;8.874;2023-12-22T13:12:01;6.40;;;2.27;;
3733;SDS011;1882;52.256;8.874;2023-12-22T13:14:29;4.80;;;1.97;;
3733;SDS011;1882;52.256;8.874;2023-12-22T13:16:57;9.00;;;2.80;;
3733;SDS011;1882;52.256;8.874;2023-12-22T13:19:24;8.07;;;3.20;;
3733;SDS011;1882;52.256;8.874;2023-12-22T13:21:56;9.53;;;3.10;;
3733;SDS011;1882;52.256;8.874;2023-12-22T13:24:23;7.03;;;2.60;;
3733;SDS011;1882;52.256;8.874;2023-12-22T13:27:02;5.20;;;2.00;;
3733;SDS011;1882;52.256;8.874;2023-12-22T13:29:41;2.73;;;1.60;;
3733;SDS011;1882;52.256;8.874;2023-12-22T13:32:14;6.03;;;2.40;;
3733;SDS011;1882;52.256;8.874;2023-12-22T13:34:46;5.70;;;1.83;;
3733;SDS011;1882;52.256;8.874;2023-12-22T13:37:16;3.57;;;1.60;;
3733;SDS011;1882;52.256;8.874;2023-12-22T13:39:45;4.33;;;1.57;;
3733;SDS011;1882;52.256;8.874;2023-12-22T13:42:19;5.17;;;2.00;;
3733;SDS011;1882;52.256;8.874;2023-12-22T13:44:48;11.03;;;1.77;;
3733;SDS011;1882;52.256;8.874;2023-12-22T13:47:16;8.20;;;2.70;;
3733;SDS011;1882;52.256;8.874;2023-12-22T13:49:43;3.43;;;1.70;;
3733;SDS011;1882;52.256;8.874;2023-12-22T13:52:26;3.50;;;1.50;;
3733;SDS011;1882;52.256;8.874;2023-12-22T13:55:09;3.03;;;1.70;;
3733;SDS011;1882;52.256;8.874;2023-12-22T13:57:37;4.30;;;2.00;;
3733;SDS011;1882;52.256;8.874;2023-12-22T14:02:48;1.93;;;1.50;;
3733;SDS011;1882;52.256;8.874;2023-12-22T14:05:16;27.60;;;15.67;;
3733;SDS011;1882;52.256;8.874;2023-12-22T14:07:43;7.30;;;3.13;;
3733;SDS011;1882;52.256;8.874;2023-12-22T14:10:11;3.90;;;2.03;;
3733;SDS011;1882;52.256;8.874;2023-12-22T14:12:38;10.03;;;2.57;;
3733;SDS011;1882;52.256;8.874;2023-12-22T14:15:07;4.57;;;1.90;;
3733;SDS011;1882;52.256;8.874;2023-12-22T14:17:38;4.80;;;2.23;;
3733;SDS011;1882;52.256;8.874;2023-12-22T14:20:09;8.40;;;1.80;;
3733;SDS011;1882;52.256;8.874;2023-12-22T14:22:37;8.10;;;2.10;;
3733;SDS011;1882;52.256;8.874;2023-12-22T14:25:04;5.90;;;1.63;;
3733;SDS011;1882;52.256;8.874;2023-12-22T14:27:33;5.57;;;1.80;;
3733;SDS011;1882;52.256;8.874;2023-12-22T14:30:00;10.57;;;3.90;;
3733;SDS011;1882;52.256;8.874;2023-12-22T14:32:26;8.27;;;1.87;;
3733;SDS011;1882;52.256;8.874;2023-12-22T14:34:53;3.20;;;1.40;;
3733;SDS011;1882;52.256;8.874;2023-12-22T14:37:20;7.63;;;1.80;;
3733;SDS011;1882;52.256;8.874;2023-12-22T14:39:49;5.17;;;1.70;;
3733;SDS011;1882;52.256;8.874;2023-12-22T14:42:16;4.20;;;1.40;;
3733;SDS011;1882;52.256;8.874;2023-12-22T14:44:43;3.30;;;1.83;;
3733;SDS011;1882;52.256;8.874;2023-12-22T14:47:10;4.17;;;1.70;;
3733;SDS011;1882;52.256;8.874;2023-12-22T14:49:42;3.03;;;1.53;;
3733;SDS011;1882;52.256;8.874;2023-12-22T14:52:09;2.57;;;2.07;;
3733;SDS011;1882;52.256;8.874;2023-12-22T14:54:35;4.37;;;1.40;;
3733;SDS011;1882;52.256;8.874;2023-12-22T14:57:02;4.20;;;1.50;;
3733;SDS011;1882;52.256;8.874;2023-12-22T14:59:29;4.57;;;2.80;;
3733;SDS011;1882;52.256;8.874;2023-12-22T15:01:56;5.07;;;1.83;;
3733;SDS011;1882;52.256;8.874;2023-12-22T15:04:23;1.70;;;1.60;;
3733;SDS011;1882;52.256;8.874;2023-12-22T15:06:51;3.83;;;2.30;;
3733;SDS011;1882;52.256;8.874;2023-12-22T15:09:27;2.10;;;1.60;;
3733;SDS011;1882;52.256;8.874;2023-12-22T15:11:57;3.97;;;1.40;;
3733;SDS011;1882;52.256;8.874;2023-12-22T15:14:24;1.47;;;1.30;;
3733;SDS011;1882;52.256;8.874;2023-12-22T15:16:51;2.10;;;1.30;;
3733;SDS011;1882;52.256;8.874;2023-12-22T15:19:19;1.60;;;1.47;;
3733;SDS011;1882;52.256;8.874;2023-12-22T15:21:46;2.80;;;1.20;;
3733;SDS011;1882;52.256;8.874;2023-12-22T15:24:16;2.70;;;1.40;;
3733;SDS011;1882;52.256;8.874;2023-12-22T15:26:42;1.90;;;1.80;;
3733;SDS011;1882;52.256;8.874;2023-12-22T15:29:09;1.97;;;1.50;;
3733;SDS011;1882;52.256;8.874;2023-12-22T15:31:36;1.73;;;1.20;;
3733;SDS011;1882;52.256;8.874;2023-12-22T15:34:04;2.03;;;1.43;;
3733;SDS011;1882;52.256;8.874;2023-12-22T15:36:33;2.80;;;1.73;;
3733;SDS011;1882;52.256;8.874;2023-12-22T15:39:00;2.87;;;1.80;;
3733;SDS011;1882;52.256;8.874;2023-12-22T15:41:30;2.10;;;1.40;;
3733;SDS011;1882;52.256;8.874;2023-12-22T15:43:57;1.73;;;1.30;;
3733;SDS011;1882;52.256;8.874;2023-12-22T15:46:24;5.73;;;2.73;;
3733;SDS011;1882;52.256;8.874;2023-12-22T15:48:51;5.10;;;2.53;;
3733;SDS011;1882;52.256;8.874;2023-12-22T15:51:18;11.17;;;3.90;;